sensor_id;sensor_type;location;lat;lon;timestamp;pressure;altitude;pressure_sealevel;temperature;humidity
73600;BME280;61877;48.246;9.220;2022-12-18T00:00:40;94981.28;;;-8.25;85.54
73600;BME280;61877;48.246;9.220;2022-12-18T00:03:06;94987.50;;;-8.26;85.45
73600;BME280;61877;48.246;9.220;2022-12-18T00:05:31;94989.09;;;-8.25;86.14
73600;BME280;61877;48.246;9.220;2022-12-18T00:07:56;94990.28;;;-8.21;86.16
73600;BME280;61877;48.246;9.220;2022-12-18T00:10:22;94990.72;;;-8.24;85.33
73600;BME280;61877;48.246;9.220;2022-12-18T00:12:47;94986.28;;;-8.24;85.72
73600;BME280;61877;48.246;9.220;2022-12-18T00:15:13;94981.47;;;-8.20;85.46
73600;BME280;61877;48.246;9.220;2022-12-18T00:17:39;94984.06;;;-8.20;85.36
73600;BME280;61877;48.246;9.220;2022-12-18T00:20:06;94985.47;;;-8.11;86.26
73600;BME280;61877;48.246;9.220;2022-12-18T00:22:32;94988.69;;;-8.09;86.74
73600;BME280;61877;48.246;9.220;2022-12-18T00:24:57;94997.88;;;-8.07;86.48
73600;BME280;61877;48.246;9.220;2022-12-18T00:27:23;94989.06;;;-8.06;86.60
73600;BME280;61877;48.246;9.220;2022-12-18T00:29:48;94990.06;;;-8.00;86.43
73600;BME280;61877;48.246;9.220;2022-12-18T00:32:14;94990.25;;;-7.95;86.49
73600;BME280;61877;48.246;9.220;2022-12-18T00:34:41;94983.44;;;-7.89;86.63
73600;BME280;61877;48.246;9.220;2022-12-18T00:37:06;94985.03;;;-7.88;86.66
73600;BME280;61877;48.246;9.220;2022-12-18T00:39:32;94987.44;;;-7.87;86.57
73600;BME280;61877;48.246;9.220;2022-12-18T00:41:57;94986.66;;;-7.81;86.44
73600;BME280;61877;48.246;9.220;2022-12-18T00:44:22;94998.66;;;-7.80;86.10
73600;BME280;61877;48.246;9.220;2022-12-18T00:46:48;94991.06;;;-7.81;86.37
73600;BME280;61877;48.246;9.220;2022-12-18T00:49:14;94998.06;;;-7.82;86.18
73600;BME280;61877;48.246;9.220;2022-12-18T00:51:41;94996.03;;;-7.67;85.83
73600;BME280;61877;48.246;9.220;2022-12-18T00:54:07;94995.81;;;-7.59;85.43
73600;BME280;61877;48.246;9.220;2022-12-18T00:56:35;94997.22;;;-7.56;85.74
73600;BME280;61877;48.246;9.220;2022-12-18T00:59:00;94996.19;;;-7.55;85.76
73600;BME280;61877;48.246;9.220;2022-12-18T01:01:26;94995.38;;;-7.56;85.84
73600;BME280;61877;48.246;9.220;2022-12-18T01:03:51;94995.22;;;-7.54;86.28
73600;BME280;61877;48.246;9.220;2022-12-18T01:06:16;94991.19;;;-7.57;86.22
73600;BME280;61877;48.246;9.220;2022-12-18T01:08:44;94986.59;;;-7.55;86.69
73600;BME280;61877;48.246;9.220;2022-12-18T01:11:11;94990.56;;;-7.52;86.43
73600;BME280;61877;48.246;9.220;2022-12-18T01:13:37;94986.59;;;-7.55;86.14
73600;BME280;61877;48.246;9.220;2022-12-18T01:16:03;94990.97;;;-7.49;86.62
73600;BME280;61877;48.246;9.220;2022-12-18T01:18:28;94995.56;;;-7.44;86.50
73600;BME280;61877;48.246;9.220;2022-12-18T01:20:54;95004.59;;;-7.47;85.90
73600;BME280;61877;48.246;9.220;2022-12-18T01:23:19;94999.97;;;-7.38;86.57
73600;BME280;61877;48.246;9.220;2022-12-18T01:25:46;95001.53;;;-7.31;87.98
73600;BME280;61877;48.246;9.220;2022-12-18T01:28:11;95005.34;;;-7.27;86.90
73600;BME280;61877;48.246;9.220;2022-12-18T01:30:37;95010.75;;;-7.22;87.74
73600;BME280;61877;48.246;9.220;2022-12-18T01:33:04;95008.06;;;-7.02;88.10
73600;BME280;61877;48.246;9.220;2022-12-18T01:35:32;95015.03;;;-6.96;88.71
73600;BME280;61877;48.246;9.220;2022-12-18T01:37:57;95017.03;;;-6.92;88.98
73600;BME280;61877;48.246;9.220;2022-12-18T01:40:23;95012.56;;;-6.85;88.96
73600;BME280;61877;48.246;9.220;2022-12-18T01:42:51;95011.94;;;-6.74;88.63
73600;BME280;61877;48.246;9.220;2022-12-18T01:45:25;95013.19;;;-6.83;89.17
73600;BME280;61877;48.246;9.220;2022-12-18T01:47:53;95011.16;;;-6.81;89.44
73600;BME280;61877;48.246;9.220;2022-12-18T01:50:20;95008.16;;;-6.84;90.18
73600;BME280;61877;48.246;9.220;2022-12-18T01:52:50;95008.72;;;-6.76;89.50
73600;BME280;61877;48.246;9.220;2022-12-18T01:55:20;95018.75;;;-6.73;89.21
73600;BME280;61877;48.246;9.220;2022-12-18T01:57:47;95017.53;;;-6.70;89.29
73600;BME280;61877;48.246;9.220;2022-12-18T02:00:17;95021.94;;;-6.71;89.52
73600;BME280;61877;48.246;9.220;2022-12-18T02:02:45;95017.53;;;-6.70;89.33
73600;BME280;61877;48.246;9.220;2022-12-18T02:05:12;95012.31;;;-6.70;89.65
73600;BME280;61877;48.246;9.220;2022-12-18T02:07:47;95012.13;;;-6.69;89.84
73600;BME280;61877;48.246;9.220;2022-12-18T02:10:20;95015.09;;;-6.65;89.58
73600;BME280;61877;48.246;9.220;2022-12-18T02:12:52;95005.41;;;-6.58;89.46
73600;BME280;61877;48.246;9.220;2022-12-18T02:15:27;95007.06;;;-6.63;89.98
73600;BME280;61877;48.246;9.220;2022-12-18T02:17:58;95006.44;;;-6.59;89.85
73600;BME280;61877;48.246;9.220;2022-12-18T02:20:32;95010.84;;;-6.59;90.24
73600;BME280;61877;48.246;9.220;2022-12-18T02:23:06;95020.28;;;-6.58;90.59
73600;BME280;61877;48.246;9.220;2022-12-18T02:28:35;95034.72;;;-6.56;90.95
73600;BME280;61877;48.246;9.220;2022-12-18T02:31:04;95021.88;;;-6.57;91.10
73600;BME280;61877;48.246;9.220;2022-12-18T02:33:33;95016.06;;;-6.59;91.11
73600;BME280;61877;48.246;9.220;2022-12-18T02:36:00;95009.84;;;-6.58;90.79
73600;BME280;61877;48.246;9.220;2022-12-18T02:38:27;95013.41;;;-6.53;91.18
73600;BME280;61877;48.246;9.220;2022-12-18T02:40:54;95012.59;;;-6.47;90.33
73600;BME280;61877;48.246;9.220;2022-12-18T02:43:20;95009.13;;;-6.41;90.56
73600;BME280;61877;48.246;9.220;2022-12-18T02:45:49;95014.72;;;-6.37;90.58
73600;BME280;61877;48.246;9.220;2022-12-18T02:48:17;95020.97;;;-6.38;90.46
73600;BME280;61877;48.246;9.220;2022-12-18T02:50:45;95020.38;;;-6.40;90.92
73600;BME280;61877;48.246;9.220;2022-12-18T02:53:18;95025.00;;;-6.42;90.88
73600;BME280;61877;48.246;9.220;2022-12-18T02:55:58;95019.56;;;-6.41;91.65
73600;BME280;61877;48.246;9.220;2022-12-18T02:58:33;95020.56;;;-6.35;90.96
73600;BME280;61877;48.246;9.220;2022-12-18T03:01:06;95025.78;;;-6.35;90.98
73600;BME280;61877;48.246;9.220;2022-12-18T03:03:39;95021.31;;;-6.35;91.38
73600;BME280;61877;48.246;9.220;2022-12-18T03:06:10;95021.53;;;-6.36;90.86
73600;BME280;61877;48.246;9.220;2022-12-18T03:08:40;95020.56;;;-6.35;91.40
73600;BME280;61877;48.246;9.220;2022-12-18T03:11:09;95021.53;;;-6.36;91.13
73600;BME280;61877;48.246;9.220;2022-12-18T03:13:37;95025.09;;;-6.24;90.70
73600;BME280;61877;48.246;9.220;2022-12-18T03:16:09;95022.25;;;-6.23;90.55
73600;BME280;61877;48.246;9.220;2022-12-18T03:18:37;95010.44;;;-6.25;91.01
73600;BME280;61877;48.246;9.220;2022-12-18T03:21:07;95022.47;;;-6.24;90.82
73600;BME280;61877;48.246;9.220;2022-12-18T03:23:38;95025.09;;;-6.24;90.82
73600;BME280;61877;48.246;9.220;2022-12-18T03:26:09;95029.44;;;-6.18;90.18
73600;BME280;61877;48.246;9.220;2022-12-18T03:28:37;95031.06;;;-6.17;90.76
73600;BME280;61877;48.246;9.220;2022-12-18T03:31:08;95027.25;;;-6.21;90.54
73600;BME280;61877;48.246;9.220;2022-12-18T03:33:38;95033.25;;;-6.14;90.88
73600;BME280;61877;48.246;9.220;2022-12-18T03:36:06;95023.22;;;-6.17;90.79
73600;BME280;61877;48.246;9.220;2022-12-18T03:38:32;95024.00;;;-6.10;90.07
73600;BME280;61877;48.246;9.220;2022-12-18T03:40:59;95028.41;;;-6.11;90.47
73600;BME280;61877;48.246;9.220;2022-12-18T03:43:37;95033.19;;;-6.08;89.81
73600;BME280;61877;48.246;9.220;2022-12-18T03:46:08;95032.38;;;-6.08;90.68
73600;BME280;61877;48.246;9.220;2022-12-18T03:48:41;95026.38;;;-6.09;90.36
73600;BME280;61877;48.246;9.220;2022-12-18T03:51:11;95031.22;;;-6.12;90.20
73600;BME280;61877;48.246;9.220;2022-12-18T03:53:46;95032.03;;;-6.12;90.90
73600;BME280;61877;48.246;9.220;2022-12-18T03:56:15;95030.00;;;-6.10;90.79
73600;BME280;61877;48.246;9.220;2022-12-18T03:58:43;95026.22;;;-6.14;90.95
73600;BME280;61877;48.246;9.220;2022-12-18T04:01:13;95024.81;;;-6.16;90.91
73600;BME280;61877;48.246;9.220;2022-12-18T04:03:41;95028.47;;;-6.17;91.05
73600;BME280;61877;48.246;9.220;2022-12-18T04:06:07;95028.03;;;-6.14;90.98
73600;BME280;61877;48.246;9.220;2022-12-18T04:08:34;95029.44;;;-6.18;90.98
73600;BME280;61877;48.246;9.220;2022-12-18T04:11:00;95027.59;;;-6.11;91.32
73600;BME280;61877;48.246;9.220;2022-12-18T04:13:28;95028.63;;;-6.12;90.93
73600;BME280;61877;48.246;9.220;2022-12-18T04:15:54;95034.44;;;-6.10;90.75
73600;BME280;61877;48.246;9.220;2022-12-18T04:18:21;95034.66;;;-6.12;91.18
73600;BME280;61877;48.246;9.220;2022-12-18T04:20:46;95036.66;;;-6.14;91.70
73600;BME280;61877;48.246;9.220;2022-12-18T04:23:11;95030.63;;;-6.14;90.69
73600;BME280;61877;48.246;9.220;2022-12-18T04:25:37;95035.84;;;-6.14;91.10
73600;BME280;61877;48.246;9.220;2022-12-18T04:28:03;95040.50;;;-6.16;91.11
73600;BME280;61877;48.246;9.220;2022-12-18T04:30:28;95034.28;;;-6.15;90.83
73600;BME280;61877;48.246;9.220;2022-12-18T04:32:53;95036.06;;;-6.16;90.77
73600;BME280;61877;48.246;9.220;2022-12-18T04:35:20;95035.69;;;-6.19;91.47
73600;BME280;61877;48.246;9.220;2022-12-18T04:37:46;95036.50;;;-6.19;91.51
73600;BME280;61877;48.246;9.220;2022-12-18T04:40:12;95051.34;;;-6.19;91.58
73600;BME280;61877;48.246;9.220;2022-12-18T04:42:38;95056.75;;;-6.14;91.55
73600;BME280;61877;48.246;9.220;2022-12-18T04:45:05;95051.34;;;-6.19;91.46
73600;BME280;61877;48.246;9.220;2022-12-18T04:47:30;95057.19;;;-6.17;91.08
73600;BME280;61877;48.246;9.220;2022-12-18T04:49:56;95045.13;;;-6.18;91.16
73600;BME280;61877;48.246;9.220;2022-12-18T04:52:23;95047.41;;;-6.28;91.26
73600;BME280;61877;48.246;9.220;2022-12-18T04:54:48;95061.41;;;-6.23;91.05
73600;BME280;61877;48.246;9.220;2022-12-18T04:57:13;95067.44;;;-6.22;91.27
73600;BME280;61877;48.246;9.220;2022-12-18T04:59:39;95055.94;;;-6.15;91.32
73600;BME280;61877;48.246;9.220;2022-12-18T05:02:04;95063.81;;;-6.21;91.48
73600;BME280;61877;48.246;9.220;2022-12-18T05:04:30;95066.00;;;-6.18;92.00
73600;BME280;61877;48.246;9.220;2022-12-18T05:06:55;95067.19;;;-6.14;91.86
73600;BME280;61877;48.246;9.220;2022-12-18T05:09:22;95068.38;;;-6.10;91.87
73600;BME280;61877;48.246;9.220;2022-12-18T05:11:48;95059.75;;;-6.11;91.19
73600;BME280;61877;48.246;9.220;2022-12-18T05:14:13;95059.53;;;-6.09;91.20
73600;BME280;61877;48.246;9.220;2022-12-18T05:16:39;95063.72;;;-6.08;91.35
73600;BME280;61877;48.246;9.220;2022-12-18T05:19:04;95067.78;;;-6.12;91.17
73600;BME280;61877;48.246;9.220;2022-12-18T05:21:29;95066.16;;;-6.13;91.06
73600;BME280;61877;48.246;9.220;2022-12-18T05:23:55;95062.72;;;-6.07;90.97
73600;BME280;61877;48.246;9.220;2022-12-18T05:26:22;95068.56;;;-6.05;90.84
73600;BME280;61877;48.246;9.220;2022-12-18T05:28:47;95068.94;;;-6.08;91.23
73600;BME280;61877;48.246;9.220;2022-12-18T05:31:13;95073.84;;;-6.18;91.03
73600;BME280;61877;48.246;9.220;2022-12-18T05:33:38;95066.59;;;-6.16;91.17
73600;BME280;61877;48.246;9.220;2022-12-18T05:36:06;95075.03;;;-6.14;91.57
73600;BME280;61877;48.246;9.220;2022-12-18T05:38:33;95070.63;;;-6.14;91.86
73600;BME280;61877;48.246;9.220;2022-12-18T05:40:59;95072.00;;;-6.11;91.16
73600;BME280;61877;48.246;9.220;2022-12-18T05:43:26;95066.00;;;-6.18;91.45
73600;BME280;61877;48.246;9.220;2022-12-18T05:45:53;95078.28;;;-6.19;92.14
73600;BME280;61877;48.246;9.220;2022-12-18T05:48:19;95075.28;;;-6.22;91.69
73600;BME280;61877;48.246;9.220;2022-12-18T05:50:47;95074.34;;;-6.34;91.87
73600;BME280;61877;48.246;9.220;2022-12-18T05:53:13;95061.03;;;-6.26;91.46
73600;BME280;61877;48.246;9.220;2022-12-18T05:55:40;95064.66;;;-6.27;91.96
73600;BME280;61877;48.246;9.220;2022-12-18T05:58:06;95079.09;;;-6.25;91.88
73600;BME280;61877;48.246;9.220;2022-12-18T06:00:35;95084.97;;;-6.29;92.31
73600;BME280;61877;48.246;9.220;2022-12-18T06:03:00;95085.94;;;-6.24;91.39
73600;BME280;61877;48.246;9.220;2022-12-18T06:05:26;95080.88;;;-6.19;91.49
73600;BME280;61877;48.246;9.220;2022-12-18T06:07:52;95075.84;;;-6.14;91.70
73600;BME280;61877;48.246;9.220;2022-12-18T06:10:17;95084.66;;;-6.15;91.45
73600;BME280;61877;48.246;9.220;2022-12-18T06:12:43;95077.63;;;-6.14;91.50
73600;BME280;61877;48.246;9.220;2022-12-18T06:15:09;95075.03;;;-6.14;91.17
73600;BME280;61877;48.246;9.220;2022-12-18T06:17:36;95081.31;;;-6.22;91.95
73600;BME280;61877;48.246;9.220;2022-12-18T06:20:03;95084.69;;;-6.21;91.68
73600;BME280;61877;48.246;9.220;2022-12-18T06:22:31;95086.94;;;-6.25;91.74
73600;BME280;61877;48.246;9.220;2022-12-18T06:24:56;95099.19;;;-6.25;91.99
73600;BME280;61877;48.246;9.220;2022-12-18T06:27:22;95097.03;;;-6.28;91.99
73600;BME280;61877;48.246;9.220;2022-12-18T06:29:47;95089.31;;;-6.23;91.98
73600;BME280;61877;48.246;9.220;2022-12-18T06:32:13;95094.72;;;-6.18;92.01
73600;BME280;61877;48.246;9.220;2022-12-18T06:34:39;95096.56;;;-6.19;92.42
73600;BME280;61877;48.246;9.220;2022-12-18T06:37:05;95100.78;;;-6.24;91.80
73600;BME280;61877;48.246;9.220;2022-12-18T06:39:30;95116.03;;;-6.21;91.85
73600;BME280;61877;48.246;9.220;2022-12-18T06:41:56;95109.69;;;-6.32;92.27
73600;BME280;61877;48.246;9.220;2022-12-18T06:44:21;95119.69;;;-6.29;92.32
73600;BME280;61877;48.246;9.220;2022-12-18T06:46:47;95118.47;;;-6.26;92.80
73600;BME280;61877;48.246;9.220;2022-12-18T06:49:12;95114.09;;;-6.32;92.78
73600;BME280;61877;48.246;9.220;2022-12-18T06:51:39;95117.69;;;-6.27;92.97
73600;BME280;61877;48.246;9.220;2022-12-18T06:54:05;95120.47;;;-6.22;92.35
73600;BME280;61877;48.246;9.220;2022-12-18T06:56:30;95121.84;;;-6.19;92.51
73600;BME280;61877;48.246;9.220;2022-12-18T06:58:56;95123.66;;;-6.20;92.13
73600;BME280;61877;48.246;9.220;2022-12-18T07:01:21;95124.03;;;-6.16;92.10
73600;BME280;61877;48.246;9.220;2022-12-18T07:03:51;95127.06;;;-6.19;91.49
73600;BME280;61877;48.246;9.220;2022-12-18T07:06:19;95131.69;;;-6.21;91.94
73600;BME280;61877;48.246;9.220;2022-12-18T07:08:47;95139.16;;;-6.25;92.35
73600;BME280;61877;48.246;9.220;2022-12-18T07:11:13;95136.75;;;-6.26;91.99
73600;BME280;61877;48.246;9.220;2022-12-18T07:13:39;95136.91;;;-6.21;91.75
73600;BME280;61877;48.246;9.220;2022-12-18T07:16:06;95130.72;;;-6.20;92.57
73600;BME280;61877;48.246;9.220;2022-12-18T07:18:32;95142.94;;;-6.21;92.00
73600;BME280;61877;48.246;9.220;2022-12-18T07:20:58;95145.75;;;-6.16;92.02
73600;BME280;61877;48.246;9.220;2022-12-18T07:23:23;95144.50;;;-6.13;91.42
73600;BME280;61877;48.246;9.220;2022-12-18T07:25:50;95149.72;;;-6.07;91.64
73600;BME280;61877;48.246;9.220;2022-12-18T07:28:15;95154.31;;;-6.02;91.01
73600;BME280;61877;48.246;9.220;2022-12-18T07:30:40;95155.97;;;-6.14;90.89
73600;BME280;61877;48.246;9.220;2022-12-18T07:33:06;95156.75;;;-6.07;90.67
73600;BME280;61877;48.246;9.220;2022-12-18T07:35:32;95157.56;;;-6.13;90.68
73600;BME280;61877;48.246;9.220;2022-12-18T07:37:58;95157.53;;;-6.00;90.80
73600;BME280;61877;48.246;9.220;2022-12-18T07:40:23;95146.88;;;-5.99;90.21
73600;BME280;61877;48.246;9.220;2022-12-18T07:42:50;95159.66;;;-5.91;91.02
73600;BME280;61877;48.246;9.220;2022-12-18T07:45:15;95154.44;;;-5.91;90.70
73600;BME280;61877;48.246;9.220;2022-12-18T07:47:41;95154.41;;;-5.84;90.28
73600;BME280;61877;48.246;9.220;2022-12-18T07:50:07;95150.31;;;-5.80;89.89
73600;BME280;61877;48.246;9.220;2022-12-18T07:52:32;95156.47;;;-5.93;89.39
73600;BME280;61877;48.246;9.220;2022-12-18T07:54:58;95153.59;;;-5.85;89.27
73600;BME280;61877;48.246;9.220;2022-12-18T07:57:23;95160.50;;;-5.97;89.68
73600;BME280;61877;48.246;9.220;2022-12-18T07:59:50;95162.38;;;-5.79;89.97
73600;BME280;61877;48.246;9.220;2022-12-18T08:02:16;95164.72;;;-5.71;89.69
73600;BME280;61877;48.246;9.220;2022-12-18T08:04:42;95156.56;;;-5.81;88.87
73600;BME280;61877;48.246;9.220;2022-12-18T08:07:07;95166.75;;;-5.73;88.52
73600;BME280;61877;48.246;9.220;2022-12-18T08:09:33;95166.50;;;-5.65;88.73
73600;BME280;61877;48.246;9.220;2022-12-18T08:11:58;95165.97;;;-5.74;88.42
73600;BME280;61877;48.246;9.220;2022-12-18T08:14:24;95162.34;;;-5.73;88.52
73600;BME280;61877;48.246;9.220;2022-12-18T08:16:51;95171.56;;;-5.70;88.26
73600;BME280;61877;48.246;9.220;2022-12-18T08:19:16;95168.78;;;-5.75;88.41
73600;BME280;61877;48.246;9.220;2022-12-18T08:21:42;95169.75;;;-5.70;88.59
73600;BME280;61877;48.246;9.220;2022-12-18T08:24:09;95173.94;;;-5.62;88.13
73600;BME280;61877;48.246;9.220;2022-12-18T08:26:34;95172.75;;;-5.66;87.10
73600;BME280;61877;48.246;9.220;2022-12-18T08:29:00;95171.06;;;-5.54;87.37
73600;BME280;61877;48.246;9.220;2022-12-18T08:31:27;95172.00;;;-5.49;87.63
73600;BME280;61877;48.246;9.220;2022-12-18T08:33:54;95180.06;;;-5.50;86.58
73600;BME280;61877;48.246;9.220;2022-12-18T08:36:20;95186.66;;;-5.41;87.74
73600;BME280;61877;48.246;9.220;2022-12-18T08:38:46;95187.81;;;-5.37;87.41
73600;BME280;61877;48.246;9.220;2022-12-18T08:41:13;95189.31;;;-5.23;87.15
73600;BME280;61877;48.246;9.220;2022-12-18T08:43:39;95179.94;;;-5.06;86.70
73600;BME280;61877;48.246;9.220;2022-12-18T08:46:05;95186.53;;;-5.03;85.79
73600;BME280;61877;48.246;9.220;2022-12-18T08:48:30;95196.47;;;-5.12;85.90
73600;BME280;61877;48.246;9.220;2022-12-18T08:50:58;95188.63;;;-5.12;85.07
73600;BME280;61877;48.246;9.220;2022-12-18T08:53:24;95192.00;;;-5.05;86.04
73600;BME280;61877;48.246;9.220;2022-12-18T08:55:50;95192.31;;;-4.95;84.07
73600;BME280;61877;48.246;9.220;2022-12-18T08:58:15;95190.28;;;-4.93;84.31
73600;BME280;61877;48.246;9.220;2022-12-18T09:00:41;95193.06;;;-4.88;85.41
73600;BME280;61877;48.246;9.220;2022-12-18T09:03:11;95182.16;;;-4.85;85.21
73600;BME280;61877;48.246;9.220;2022-12-18T09:05:37;95177.53;;;-4.65;85.07
73600;BME280;61877;48.246;9.220;2022-12-18T09:08:03;95178.81;;;-4.74;84.22
73600;BME280;61877;48.246;9.220;2022-12-18T09:10:29;95175.50;;;-4.63;84.22
73600;BME280;61877;48.246;9.220;2022-12-18T09:12:56;95165.81;;;-4.62;83.63
73600;BME280;61877;48.246;9.220;2022-12-18T09:21:31;95164.31;;;-4.04;82.87
73600;BME280;61877;48.246;9.220;2022-12-18T09:23:58;95173.44;;;-4.07;82.29
73600;BME280;61877;48.246;9.220;2022-12-18T09:26:25;95169.84;;;-3.94;81.78
73600;BME280;61877;48.246;9.220;2022-12-18T09:28:51;95169.81;;;-4.24;81.87
73600;BME280;61877;48.246;9.220;2022-12-18T09:31:18;95173.13;;;-3.99;81.49
73600;BME280;61877;48.246;9.220;2022-12-18T09:33:44;95174.22;;;-4.06;82.24
73600;BME280;61877;48.246;9.220;2022-12-18T09:36:13;95165.75;;;-4.20;81.49
73600;BME280;61877;48.246;9.220;2022-12-18T09:38:38;95160.78;;;-4.10;82.41
73600;BME280;61877;48.246;9.220;2022-12-18T09:41:17;95166.41;;;-3.76;80.57
73600;BME280;61877;48.246;9.220;2022-12-18T09:43:47;95169.06;;;-3.65;80.77
73600;BME280;61877;48.246;9.220;2022-12-18T09:46:17;95160.50;;;-3.60;79.04
73600;BME280;61877;48.246;9.220;2022-12-18T09:48:47;95167.84;;;-3.39;79.44
73600;BME280;61877;48.246;9.220;2022-12-18T09:51:17;95161.16;;;-3.24;78.39
73600;BME280;61877;48.246;9.220;2022-12-18T09:53:47;95168.81;;;-3.22;77.94
73600;BME280;61877;48.246;9.220;2022-12-18T09:56:19;95157.38;;;-3.28;76.90
73600;BME280;61877;48.246;9.220;2022-12-18T09:58:48;95164.38;;;-3.22;79.90
73600;BME280;61877;48.246;9.220;2022-12-18T10:01:21;95161.91;;;-3.46;78.71
73600;BME280;61877;48.246;9.220;2022-12-18T10:03:47;95165.13;;;-3.33;78.76
73600;BME280;61877;48.246;9.220;2022-12-18T10:06:15;95162.16;;;-3.36;79.25
73600;BME280;61877;48.246;9.220;2022-12-18T10:21:59;95178.53;;;-2.88;77.44
73600;BME280;61877;48.246;9.220;2022-12-18T10:24:30;95181.38;;;-3.01;76.83
73600;BME280;61877;48.246;9.220;2022-12-18T10:27:08;95177.25;;;-3.20;77.99
73600;BME280;61877;48.246;9.220;2022-12-18T10:29:36;95175.09;;;-3.12;77.57
73600;BME280;61877;48.246;9.220;2022-12-18T10:32:02;95175.13;;;-2.89;76.57
73600;BME280;61877;48.246;9.220;2022-12-18T10:34:27;95174.91;;;-2.76;76.68
73600;BME280;61877;48.246;9.220;2022-12-18T10:36:54;95177.19;;;-2.68;76.67
73600;BME280;61877;48.246;9.220;2022-12-18T10:39:22;95167.34;;;-2.49;75.39
73600;BME280;61877;48.246;9.220;2022-12-18T10:41:49;95161.03;;;-2.25;73.57
73600;BME280;61877;48.246;9.220;2022-12-18T10:44:17;95154.31;;;-2.32;75.43
73600;BME280;61877;48.246;9.220;2022-12-18T10:46:47;95151.56;;;-2.37;75.61
73600;BME280;61877;48.246;9.220;2022-12-18T10:49:22;95164.53;;;-2.08;73.22
73600;BME280;61877;48.246;9.220;2022-12-18T10:51:48;95156.97;;;-2.44;76.31
73600;BME280;61877;48.246;9.220;2022-12-18T10:54:18;95155.56;;;-2.35;74.81
73600;BME280;61877;48.246;9.220;2022-12-18T10:56:45;95155.19;;;-2.27;72.21
73600;BME280;61877;48.246;9.220;2022-12-18T10:59:11;95154.13;;;-2.54;72.79
73600;BME280;61877;48.246;9.220;2022-12-18T11:01:51;95163.13;;;-2.50;73.36
73600;BME280;61877;48.246;9.220;2022-12-18T11:04:20;95171.47;;;-2.65;75.67
73600;BME280;61877;48.246;9.220;2022-12-18T11:06:54;95166.72;;;-2.16;76.23
73600;BME280;61877;48.246;9.220;2022-12-18T11:09:23;95171.50;;;-2.13;72.64
73600;BME280;61877;48.246;9.220;2022-12-18T11:11:50;95166.44;;;-2.43;73.90
73600;BME280;61877;48.246;9.220;2022-12-18T11:14:19;95164.63;;;-2.03;73.67
73600;BME280;61877;48.246;9.220;2022-12-18T11:16:47;95167.81;;;-2.40;71.87
73600;BME280;61877;48.246;9.220;2022-12-18T11:19:31;95154.16;;;-2.14;73.72
73600;BME280;61877;48.246;9.220;2022-12-18T11:21:57;95153.09;;;-1.74;72.61
73600;BME280;61877;48.246;9.220;2022-12-18T11:24:29;95150.78;;;-1.98;72.37
73600;BME280;61877;48.246;9.220;2022-12-18T11:26:55;95147.50;;;-2.17;73.16
73600;BME280;61877;48.246;9.220;2022-12-18T11:29:27;95145.38;;;-1.92;73.02
73600;BME280;61877;48.246;9.220;2022-12-18T11:32:19;95143.97;;;-2.11;71.85
73600;BME280;61877;48.246;9.220;2022-12-18T11:34:51;95155.81;;;-1.69;71.53
73600;BME280;61877;48.246;9.220;2022-12-18T11:37:18;95153.31;;;-1.75;72.18
73600;BME280;61877;48.246;9.220;2022-12-18T11:39:48;95150.31;;;-1.95;71.67
73600;BME280;61877;48.246;9.220;2022-12-18T11:42:18;95145.00;;;-2.12;70.74
73600;BME280;61877;48.246;9.220;2022-12-18T11:44:48;95143.75;;;-2.09;71.28
73600;BME280;61877;48.246;9.220;2022-12-18T11:47:21;95139.22;;;-1.86;74.01
73600;BME280;61877;48.246;9.220;2022-12-18T11:49:51;95136.47;;;-1.91;73.52
73600;BME280;61877;48.246;9.220;2022-12-18T11:52:20;95126.75;;;-1.90;72.60
73600;BME280;61877;48.246;9.220;2022-12-18T11:54:51;95122.56;;;-1.75;71.48
73600;BME280;61877;48.246;9.220;2022-12-18T11:57:24;95126.16;;;-1.64;70.66
73600;BME280;61877;48.246;9.220;2022-12-18T12:00:00;95129.22;;;-1.56;69.54
73600;BME280;61877;48.246;9.220;2022-12-18T12:02:39;95129.00;;;-1.38;70.10
73600;BME280;61877;48.246;9.220;2022-12-18T12:05:24;95119.13;;;-1.75;70.81
73600;BME280;61877;48.246;9.220;2022-12-18T12:07:56;95120.03;;;-1.98;72.21
73600;BME280;61877;48.246;9.220;2022-12-18T12:10:40;95127.75;;;-2.59;72.13
73600;BME280;61877;48.246;9.220;2022-12-18T12:13:22;95121.97;;;-2.33;72.77
73600;BME280;61877;48.246;9.220;2022-12-18T12:15:58;95116.53;;;-2.54;73.93
73600;BME280;61877;48.246;9.220;2022-12-18T12:18:34;95112.88;;;-2.02;71.46
73600;BME280;61877;48.246;9.220;2022-12-18T12:21:08;95109.94;;;-2.17;71.94
73600;BME280;61877;48.246;9.220;2022-12-18T12:23:44;95100.75;;;-2.43;73.16
73600;BME280;61877;48.246;9.220;2022-12-18T12:26:20;95100.00;;;-2.90;74.95
73600;BME280;61877;48.246;9.220;2022-12-18T12:29:00;95097.94;;;-2.65;74.78
73600;BME280;61877;48.246;9.220;2022-12-18T12:31:39;95101.59;;;-3.12;74.85
73600;BME280;61877;48.246;9.220;2022-12-18T12:34:15;95087.31;;;-2.70;75.20
73600;BME280;61877;48.246;9.220;2022-12-18T12:36:54;95086.19;;;-2.85;74.83
73600;BME280;61877;48.246;9.220;2022-12-18T12:39:29;95083.66;;;-2.57;76.23
73600;BME280;61877;48.246;9.220;2022-12-18T12:41:57;95075.75;;;-2.45;76.42
73600;BME280;61877;48.246;9.220;2022-12-18T12:44:25;95075.41;;;-2.49;75.16
73600;BME280;61877;48.246;9.220;2022-12-18T12:46:52;95083.47;;;-2.27;75.53
73600;BME280;61877;48.246;9.220;2022-12-18T12:49:21;95089.28;;;-2.37;72.67
73600;BME280;61877;48.246;9.220;2022-12-18T12:51:53;95083.13;;;-2.31;75.06
73600;BME280;61877;48.246;9.220;2022-12-18T12:54:23;95081.06;;;-2.01;73.49
73600;BME280;61877;48.246;9.220;2022-12-18T12:56:55;95089.41;;;-2.04;73.48
73600;BME280;61877;48.246;9.220;2022-12-18T12:59:28;95098.44;;;-2.91;75.61
73600;BME280;61877;48.246;9.220;2022-12-18T13:02:02;95090.06;;;-2.76;74.23
73600;BME280;61877;48.246;9.220;2022-12-18T13:04:34;95091.25;;;-2.95;75.68
73600;BME280;61877;48.246;9.220;2022-12-18T13:07:06;95095.81;;;-2.91;75.40
73600;BME280;61877;48.246;9.220;2022-12-18T13:10:23;95098.16;;;-2.66;75.70
73600;BME280;61877;48.246;9.220;2022-12-18T13:12:54;95092.88;;;-2.43;77.39
73600;BME280;61877;48.246;9.220;2022-12-18T13:15:24;95101.56;;;-2.54;76.28
73600;BME280;61877;48.246;9.220;2022-12-18T13:18:03;95100.56;;;-2.76;76.39
73600;BME280;61877;48.246;9.220;2022-12-18T13:20:33;95096.78;;;-2.69;76.29
73600;BME280;61877;48.246;9.220;2022-12-18T13:22:58;95104.38;;;-2.84;75.50
73600;BME280;61877;48.246;9.220;2022-12-18T13:25:28;95106.50;;;-2.69;76.66
73600;BME280;61877;48.246;9.220;2022-12-18T13:27:59;95103.78;;;-2.97;76.92